Time;durP1;ratioP1;P1;durP2;ratioP2;P2;SDS_P1;SDS_P2;PMS_P1;PMS_P2;Temp;Humidity;BMP_temperature;BMP_pressure;BME280_temperature;BME280_humidity;BME280_pressure;Samples;Min_cycle;Max_cycle;Signal;HPM_P1;HPM_P2
2021/03/03 00:01:03;;;;;;;39.90;21.63;;;7.10;95.80;;;;;;4956865;28;20373;-76
2021/03/03 00:03:28;;;;;;;38.92;22.63;;;7.20;95.10;;;;;;4958075;29;20019;-76
2021/03/03 00:05:54;;;;;;;43.92;22.70;;;7.20;95.80;;;;;;4951921;28;20082;-75
2021/03/03 00:08:20;;;;;;;36.45;20.52;;;7.00;95.80;;;;;;4956618;28;20028;-75
2021/03/03 00:10:45;;;;;;;42.38;21.50;;;7.20;95.70;;;;;;4974206;28;20023;-74
2021/03/03 00:13:11;;;;;;;54.50;22.15;;;7.20;95.30;;;;;;4973369;28;20431;-79
2021/03/03 00:15:37;;;;;;;32.95;20.25;;;7.10;95.70;;;;;;4971962;28;20023;-73
2021/03/03 00:18:03;;;;;;;36.13;20.35;;;7.20;95.40;;;;;;4973870;28;20027;-74
2021/03/03 00:20:29;;;;;;;36.88;20.67;;;7.20;95.40;;;;;;4974654;28;20089;-76
2021/03/03 00:22:55;;;;;;;43.33;22.05;;;7.10;95.70;;;;;;4972304;28;20046;-76
2021/03/03 00:25:21;;;;;;;37.50;21.48;;;7.20;95.90;;;;;;4955907;28;20027;-76
2021/03/03 00:27:47;;;;;;;36.53;22.30;;;7.20;95.60;;;;;;4952849;29;20030;-77
2021/03/03 00:30:14;;;;;;;35.60;21.33;;;7.30;95.70;;;;;;4953809;28;20039;-77
2021/03/03 00:32:40;;;;;;;40.45;23.02;;;7.30;95.60;;;;;;4954953;28;20027;-76
2021/03/03 00:35:06;;;;;;;38.38;20.30;;;7.20;95.70;;;;;;4953530;29;20033;-74
2021/03/03 00:37:32;;;;;;;42.20;20.77;;;7.10;96.30;;;;;;4954985;29;20046;-75
2021/03/03 00:39:58;;;;;;;39.88;22.25;;;6.50;97.70;;;;;;4967004;28;20376;-74
2021/03/03 00:42:23;;;;;;;37.30;20.17;;;6.10;99.90;;;;;;4972828;28;20496;-75
2021/03/03 00:44:49;;;;;;;35.70;20.60;;;6.60;99.20;;;;;;4973137;28;20054;-73
2021/03/03 00:47:15;;;;;;;39.63;23.38;;;6.80;98.50;;;;;;4973831;28;20034;-76
2021/03/03 00:49:40;;;;;;;41.33;22.23;;;6.80;97.70;;;;;;4974318;28;20436;-76
2021/03/03 00:52:06;;;;;;;36.88;21.17;;;6.20;99.30;;;;;;4952322;28;20043;-75
2021/03/03 00:54:32;;;;;;;39.67;21.60;;;5.80;99.90;;;;;;4965425;28;20019;-76
2021/03/03 00:56:58;;;;;;;36.53;21.67;;;5.90;99.90;;;;;;4972472;28;20053;-77
2021/03/03 00:59:23;;;;;;;35.90;21.17;;;6.10;99.90;;;;;;4974008;28;20377;-75
2021/03/03 01:01:49;;;;;;;37.83;20.88;;;6.30;99.90;;;;;;4973194;28;20090;-75
2021/03/03 01:04:15;;;;;;;39.65;22.00;;;6.60;99.40;;;;;;4971261;28;20130;-74
2021/03/03 01:06:40;;;;;;;36.88;20.10;;;6.60;99.50;;;;;;4972659;28;20050;-76
2021/03/03 01:09:06;;;;;;;37.08;21.17;;;6.70;99.10;;;;;;4965834;28;20027;-77
2021/03/03 01:11:32;;;;;;;41.20;22.88;;;6.20;98.90;;;;;;4951981;28;20226;-75
2021/03/03 01:13:58;;;;;;;40.28;20.80;;;6.30;99.90;;;;;;4953964;29;20030;-74
2021/03/03 01:16:23;;;;;;;41.00;22.23;;;6.50;99.40;;;;;;4950836;29;20030;-74
2021/03/03 01:18:49;;;;;;;37.78;22.33;;;6.60;99.60;;;;;;4953653;28;20028;-77
2021/03/03 01:21:15;;;;;;;40.33;21.85;;;6.60;99.70;;;;;;4955998;28;20500;-75
2021/03/03 01:23:41;;;;;;;40.80;21.83;;;6.70;99.30;;;;;;4969243;28;20150;-78
2021/03/03 01:26:06;;;;;;;41.92;20.02;;;6.70;99.30;;;;;;4951861;29;20134;-77
2021/03/03 01:28:32;;;;;;;39.38;21.52;;;6.70;99.10;;;;;;4952244;29;20023;-75
2021/03/03 01:30:58;;;;;;;42.83;21.85;;;6.70;99.20;;;;;;4953328;28;20123;-78
2021/03/03 01:33:28;;;;;;;37.45;19.50;;;6.50;99.10;;;;;;4953441;28;20043;-76
2021/03/03 01:35:54;;;;;;;35.97;19.27;;;6.60;98.90;;;;;;4952769;29;20019;-73
2021/03/03 01:38:20;;;;;;;33.72;19.20;;;6.60;98.60;;;;;;4953454;28;20027;-75
2021/03/03 01:40:48;;;;;;;39.88;19.35;;;6.60;98.60;;;;;;4970866;28;20073;-74
2021/03/03 01:43:14;;;;;;;37.72;18.60;;;6.70;98.20;;;;;;4972226;28;20081;-76
2021/03/03 01:45:40;;;;;;;34.53;20.63;;;6.70;97.90;;;;;;4971501;28;20109;-75
2021/03/03 01:48:06;;;;;;;39.03;21.02;;;6.50;97.40;;;;;;4972852;28;20038;-73
2021/03/03 01:50:32;;;;;;;35.75;20.98;;;6.40;98.40;;;;;;4964529;28;20042;-74
2021/03/03 01:52:58;;;;;;;38.67;21.58;;;6.40;98.50;;;;;;4952982;29;20023;-77
2021/03/03 01:55:24;;;;;;;37.22;20.40;;;6.00;99.50;;;;;;4969163;28;20026;-74
2021/03/03 01:57:51;;;;;;;31.20;19.60;;;6.00;99.90;;;;;;4973171;28;20667;-77
2021/03/03 02:00:19;;;;;;;38.35;19.83;;;6.30;99.50;;;;;;4972857;28;20046;-76
2021/03/03 02:02:45;;;;;;;37.95;19.15;;;6.50;99.30;;;;;;4967492;28;20085;-76
2021/03/03 02:05:11;;;;;;;37.92;19.75;;;6.40;99.30;;;;;;4970724;28;20117;-76
2021/03/03 02:08:03;;;;;;;33.45;18.95;;;6.50;99.50;;;;;;4973186;28;20030;-75
2021/03/03 02:10:46;;;;;;;46.03;18.70;;;6.40;99.50;;;;;;4957285;28;20035;-75
2021/03/03 02:13:30;;;;;;;36.47;19.27;;;6.40;99.90;;;;;;4973347;28;20408;-75
2021/03/03 02:15:59;;;;;;;30.13;17.23;;;6.40;99.50;;;;;;4949947;29;20162;-74
2021/03/03 02:18:27;;;;;;;26.45;17.40;;;6.40;99.60;;;;;;4953069;29;20551;-76
2021/03/03 02:21:17;;;;;;;31.10;18.85;;;6.40;99.70;;;;;;4952697;28;20033;-76
2021/03/03 02:23:52;;;;;;;33.28;18.20;;;6.10;99.80;;;;;;4953490;28;20046;-76
2021/03/03 02:26:21;;;;;;;31.83;17.38;;;6.10;99.90;;;;;;4949408;29;20501;-74
2021/03/03 02:28:49;;;;;;;27.17;16.83;;;6.10;99.90;;;;;;4952477;28;20019;-75
2021/03/03 02:31:17;;;;;;;28.15;17.25;;;6.00;99.90;;;;;;4963156;28;20115;-75
2021/03/03 02:33:45;;;;;;;27.40;16.50;;;5.90;99.90;;;;;;4972369;28;20169;-74
2021/03/03 02:36:12;;;;;;;27.98;16.15;;;5.90;99.90;;;;;;4971138;28;20085;-74
2021/03/03 02:38:42;;;;;;;26.55;16.92;;;5.90;99.90;;;;;;4966422;28;20022;-74
2021/03/03 02:41:14;;;;;;;27.80;16.15;;;6.00;99.90;;;;;;4953375;28;20031;-74
2021/03/03 02:43:42;;;;;;;26.77;16.55;;;6.00;99.90;;;;;;4972607;28;20062;-73
2021/03/03 02:46:09;;;;;;;29.67;18.90;;;6.10;99.90;;;;;;4970154;28;20380;-75
2021/03/03 02:48:36;;;;;;;29.17;17.85;;;6.10;99.90;;;;;;4972240;28;20114;-73
2021/03/03 02:51:02;;;;;;;31.70;18.20;;;6.20;99.90;;;;;;4968488;28;20023;-73
2021/03/03 02:53:28;;;;;;;29.40;18.77;;;6.10;99.90;;;;;;4969500;28;20042;-75
2021/03/03 02:55:53;;;;;;;36.92;21.17;;;6.00;99.90;;;;;;4950803;29;20019;-74
2021/03/03 02:58:22;;;;;;;34.33;19.70;;;5.80;99.90;;;;;;4953084;28;20024;-75
2021/03/03 03:00:52;;;;;;;31.80;19.33;;;5.90;99.90;;;;;;4952209;29;20360;-74
2021/03/03 03:03:23;;;;;;;34.42;20.38;;;5.90;99.90;;;;;;4950024;28;20062;-75
2021/03/03 03:06:04;;;;;;;40.42;19.88;;;5.70;99.90;;;;;;4951268;29;20024;-74
2021/03/03 03:08:32;;;;;;;34.25;19.98;;;5.60;99.90;;;;;;4955330;28;20117;-75
2021/03/03 03:11:06;;;;;;;35.58;20.23;;;5.60;99.90;;;;;;4970303;28;20352;-75
2021/03/03 03:13:34;;;;;;;35.65;21.10;;;5.60;99.90;;;;;;4971158;28;20047;-75
2021/03/03 03:16:01;;;;;;;32.20;19.48;;;5.70;99.90;;;;;;4949847;29;20062;-74
2021/03/03 03:18:45;;;;;;;32.15;18.00;;;5.80;99.90;;;;;;4952385;29;20074;-74
2021/03/03 03:21:13;;;;;;;37.03;19.42;;;5.90;99.90;;;;;;4952547;28;20135;-76
2021/03/03 03:23:40;;;;;;;34.55;18.35;;;6.00;99.90;;;;;;4971889;28;20011;-74
2021/03/03 03:26:07;;;;;;;35.90;20.17;;;5.70;99.90;;;;;;4967319;28;20504;-74
2021/03/03 03:28:40;;;;;;;33.70;19.55;;;5.20;99.90;;;;;;4972287;28;20026;-76
2021/03/03 03:31:10;;;;;;;32.17;18.45;;;5.10;99.90;;;;;;4970051;28;20034;-75
2021/03/03 03:33:37;;;;;;;34.20;19.47;;;5.40;99.90;;;;;;4971309;28;20372;-76
2021/03/03 03:36:04;;;;;;;38.78;20.20;;;5.30;99.90;;;;;;4970103;28;20265;-75
2021/03/03 03:38:32;;;;;;;32.90;19.73;;;4.50;99.90;;;;;;4968749;28;20640;-75
2021/03/03 03:41:03;;;;;;;35.13;20.52;;;4.40;99.90;;;;;;4971249;28;20102;-74
2021/03/03 03:43:31;;;;;;;33.67;19.65;;;4.40;99.90;;;;;;4956235;28;20039;-74
2021/03/03 03:45:57;;;;;;;27.50;17.30;;;4.10;99.90;;;;;;4954281;29;20019;-74
2021/03/03 03:48:23;;;;;;;24.70;15.38;;;4.20;99.90;;;;;;4955625;29;20038;-75
2021/03/03 03:50:51;;;;;;;25.27;14.20;;;4.10;99.90;;;;;;4952579;28;20034;-75
2021/03/03 03:53:17;;;;;;;23.05;14.60;;;4.70;99.90;;;;;;4956730;28;20469;-75
2021/03/03 03:55:43;;;;;;;30.83;15.63;;;4.90;99.90;;;;;;4973351;28;20026;-74
2021/03/03 03:58:09;;;;;;;24.40;15.18;;;5.10;99.90;;;;;;4975742;28;20027;-75
2021/03/03 04:00:35;;;;;;;26.30;14.15;;;4.90;99.90;;;;;;4974110;28;20372;-75
2021/03/03 04:03:01;;;;;;;24.75;15.20;;;4.40;99.90;;;;;;4971836;28;20039;-73
2021/03/03 04:05:28;;;;;;;23.20;13.35;;;4.50;99.90;;;;;;4956691;28;20022;-74
2021/03/03 04:07:54;;;;;;;18.40;12.55;;;4.30;99.90;;;;;;4975289;28;20034;-76
2021/03/03 04:10:26;;;;;;;17.27;12.40;;;4.30;99.90;;;;;;4959817;28;20495;-75
2021/03/03 04:12:52;;;;;;;21.52;13.68;;;4.10;99.90;;;;;;4973616;28;20093;-74
2021/03/03 04:15:18;;;;;;;19.88;12.30;;;4.30;99.90;;;;;;4960029;28;20036;-75
2021/03/03 04:17:44;;;;;;;19.95;12.38;;;4.60;99.90;;;;;;4954902;29;20035;-75
2021/03/03 04:20:10;;;;;;;19.90;12.73;;;4.90;99.90;;;;;;4955803;29;20026;-73
2021/03/03 04:22:38;;;;;;;25.13;12.95;;;4.80;99.90;;;;;;4954321;28;20053;-75
2021/03/03 04:25:06;;;;;;;17.50;12.48;;;4.90;99.90;;;;;;4966696;28;20039;-74
2021/03/03 04:27:32;;;;;;;20.55;12.30;;;5.00;99.90;;;;;;4974107;28;20080;-75
2021/03/03 04:29:58;;;;;;;16.15;11.57;;;5.00;99.90;;;;;;4973986;28;20034;-75
2021/03/03 04:32:23;;;;;;;17.90;12.82;;;5.10;99.90;;;;;;4973641;28;20082;-75
2021/03/03 04:34:49;;;;;;;17.08;11.60;;;5.10;99.90;;;;;;4974519;28;20482;-76
2021/03/03 04:37:15;;;;;;;19.15;11.98;;;4.60;99.90;;;;;;4971458;28;20373;-75
2021/03/03 04:39:40;;;;;;;19.40;12.70;;;4.40;99.90;;;;;;4973670;28;20029;-73
2021/03/03 04:42:06;;;;;;;19.88;11.98;;;4.60;99.90;;;;;;4955997;28;20023;-74
2021/03/03 04:44:32;;;;;;;22.40;12.52;;;4.90;99.90;;;;;;4973372;28;20046;-74
2021/03/03 04:46:58;;;;;;;21.02;12.40;;;4.90;99.90;;;;;;4972262;28;20376;-74
2021/03/03 04:49:25;;;;;;;20.42;13.05;;;4.80;99.90;;;;;;4972483;28;20050;-75
2021/03/03 04:51:51;;;;;;;19.88;11.95;;;5.00;99.90;;;;;;4958699;28;20031;-73
2021/03/03 04:54:17;;;;;;;22.23;13.48;;;4.60;99.90;;;;;;4964832;28;20034;-76
2021/03/03 04:56:42;;;;;;;25.33;13.75;;;4.70;99.90;;;;;;4952930;29;20523;-75
2021/03/03 04:59:08;;;;;;;26.02;16.48;;;4.70;99.90;;;;;;4955324;29;20034;-74
2021/03/03 05:01:34;;;;;;;28.92;16.23;;;4.60;99.90;;;;;;4955337;28;20041;-74
2021/03/03 05:04:00;;;;;;;29.15;15.40;;;4.80;99.90;;;;;;4974395;28;20031;-74
2021/03/03 05:06:26;;;;;;;25.25;15.60;;;4.90;99.90;;;;;;4972360;28;20019;-74
2021/03/03 05:08:52;;;;;;;27.77;16.17;;;4.80;99.90;;;;;;4973202;28;20023;-75
2021/03/03 05:11:18;;;;;;;24.13;15.90;;;5.00;99.90;;;;;;4971829;28;20377;-75
2021/03/03 05:13:44;;;;;;;27.10;15.90;;;4.90;99.90;;;;;;4971445;28;20026;-75
2021/03/03 05:16:10;;;;;;;36.58;17.98;;;4.90;99.90;;;;;;4953934;28;20034;-75
2021/03/03 05:18:36;;;;;;;32.90;18.05;;;4.80;99.90;;;;;;4954166;29;20038;-74
2021/03/03 05:21:01;;;;;;;29.83;17.30;;;4.80;99.90;;;;;;4954427;28;20019;-75
2021/03/03 05:23:27;;;;;;;31.30;17.40;;;4.80;99.90;;;;;;4955040;28;20630;-75
2021/03/03 05:25:53;;;;;;;34.08;17.80;;;4.90;99.90;;;;;;4953263;28;20019;-75
2021/03/03 05:28:19;;;;;;;25.33;16.25;;;5.00;99.90;;;;;;4973592;28;20034;-75
2021/03/03 05:30:44;;;;;;;27.15;16.95;;;4.00;99.90;;;;;;4965704;28;20027;-74
2021/03/03 05:33:10;;;;;;;31.52;17.58;;;3.90;99.90;;;;;;4954082;28;20028;-73
2021/03/03 05:35:36;;;;;;;36.45;19.10;;;4.20;99.90;;;;;;4951993;29;20506;-74
2021/03/03 05:38:02;;;;;;;33.03;19.38;;;4.60;99.90;;;;;;4952006;29;20031;-74
2021/03/03 05:40:27;;;;;;;35.20;18.85;;;4.80;99.90;;;;;;4971952;28;20045;-73
2021/03/03 05:42:54;;;;;;;32.88;19.63;;;4.90;99.90;;;;;;4957174;28;20019;-73
2021/03/03 05:45:20;;;;;;;34.53;20.25;;;5.00;99.90;;;;;;4952471;29;20039;-73
2021/03/03 05:47:48;;;;;;;37.65;22.55;;;5.20;99.90;;;;;;4952166;29;20078;-74
2021/03/03 05:50:18;;;;;;;34.25;20.98;;;5.30;99.90;;;;;;4955815;28;20047;-75
2021/03/03 05:52:44;;;;;;;33.58;19.98;;;5.30;99.90;;;;;;4972575;28;20022;-75
2021/03/03 05:55:10;;;;;;;41.60;20.10;;;5.40;99.90;;;;;;4971325;28;20046;-75
2021/03/03 05:57:37;;;;;;;35.38;20.05;;;5.30;99.90;;;;;;4955104;28;20018;-77
2021/03/03 06:00:04;;;;;;;33.35;20.10;;;5.40;99.90;;;;;;4970771;28;20101;-74
2021/03/03 06:02:32;;;;;;;33.33;19.80;;;5.50;99.90;;;;;;4958731;28;20016;-75
2021/03/03 06:04:59;;;;;;;38.63;19.48;;;5.50;99.90;;;;;;4951821;28;20038;-76
2021/03/03 06:07:26;;;;;;;34.65;17.92;;;5.50;99.90;;;;;;4952843;29;20476;-77
2021/03/03 06:09:52;;;;;;;30.65;19.58;;;5.50;99.90;;;;;;4966382;28;20369;-78
2021/03/03 06:12:17;;;;;;;27.75;17.05;;;5.60;99.90;;;;;;4969254;28;20484;-77
2021/03/03 06:14:43;;;;;;;35.35;20.35;;;5.60;99.90;;;;;;4966490;28;20015;-76
2021/03/03 06:17:09;;;;;;;73.53;38.63;;;6.10;99.90;;;;;;4952695;29;20457;-78
2021/03/03 06:19:35;;;;;;;27.17;17.15;;;6.40;99.90;;;;;;4953729;29;20096;-73
2021/03/03 06:22:24;;;;;;;30.73;15.15;;;6.00;98.90;;;;;;4959711;28;20325;-74
2021/03/03 06:24:50;;;;;;;24.20;14.77;;;6.10;98.90;;;;;;4967892;28;20050;-74
2021/03/03 06:27:16;;;;;;;27.02;16.95;;;6.10;98.90;;;;;;4972008;28;20089;-77
2021/03/03 06:30:00;;;;;;;35.90;20.75;;;6.00;99.40;;;;;;4971962;28;20427;-75
2021/03/03 06:32:26;;;;;;;32.75;19.77;;;6.10;99.90;;;;;;4971643;28;20030;-78
2021/03/03 06:34:52;;;;;;;31.35;18.80;;;6.10;99.90;;;;;;4953403;28;20030;-75
2021/03/03 06:37:18;;;;;;;23.63;15.35;;;6.30;99.60;;;;;;4968433;28;20516;-76
2021/03/03 06:39:44;;;;;;;55.80;30.55;;;6.50;98.90;;;;;;4953973;28;20110;-75
2021/03/03 06:42:23;;;;;;;37.05;21.85;;;7.10;99.90;;;;;;4945250;29;20081;-74
2021/03/03 06:44:50;;;;;;;27.05;16.70;;;7.10;96.20;;;;;;4951381;29;20050;-74
2021/03/03 06:47:17;;;;;;;27.50;15.82;;;6.70;96.00;;;;;;4950754;29;20023;-75
2021/03/03 06:49:43;;;;;;;28.92;15.98;;;6.80;96.00;;;;;;4952676;29;20023;-74
2021/03/03 06:52:09;;;;;;;28.85;14.80;;;6.80;96.10;;;;;;4969654;28;20026;-75
2021/03/03 06:54:35;;;;;;;29.02;15.50;;;6.70;95.50;;;;;;4971286;28;20030;-73
2021/03/03 06:57:12;;;;;;;25.52;14.52;;;6.20;97.10;;;;;;4966830;28;20019;-74
2021/03/03 06:59:43;;;;;;;24.23;13.45;;;6.20;97.60;;;;;;4937803;28;20520;-76
2021/03/03 07:02:10;;;;;;;23.52;13.55;;;6.10;96.60;;;;;;4957202;28;20023;-76
2021/03/03 07:04:40;;;;;;;28.70;16.77;;;5.90;97.70;;;;;;4964967;28;20030;-76
2021/03/03 07:07:16;;;;;;;26.63;15.65;;;5.90;99.00;;;;;;4967777;28;20014;-76
2021/03/03 07:09:49;;;;;;;18.98;13.02;;;6.30;97.40;;;;;;4959078;28;20136;-76
2021/03/03 07:12:20;;;;;;;22.45;13.95;;;6.10;97.00;;;;;;4950516;28;20035;-75
2021/03/03 07:15:04;;;;;;;26.38;14.18;;;6.40;97.70;;;;;;4965373;28;20115;-74
2021/03/03 07:17:35;;;;;;;25.70;14.25;;;6.20;97.30;;;;;;4958127;28;20033;-74
2021/03/03 07:20:05;;;;;;;22.08;15.10;;;6.30;97.10;;;;;;4957059;29;20074;-77
2021/03/03 07:22:37;;;;;;;19.88;13.35;;;6.70;96.20;;;;;;4956903;29;20043;-76
2021/03/03 07:25:11;;;;;;;22.65;12.88;;;6.60;95.60;;;;;;4954885;29;20106;-75
2021/03/03 07:27:42;;;;;;;23.98;14.07;;;6.50;95.50;;;;;;4953233;28;20369;-78
2021/03/03 07:30:12;;;;;;;25.92;14.63;;;6.50;96.30;;;;;;4938851;28;20328;-76
2021/03/03 07:32:38;;;;;;;24.17;14.55;;;6.60;95.90;;;;;;4956488;28;20035;-78
2021/03/03 07:35:06;;;;;;;23.52;14.13;;;7.00;95.60;;;;;;4956116;29;20425;-75
2021/03/03 07:37:41;;;;;;;24.05;15.07;;;7.20;95.00;;;;;;4956328;29;20396;-77
2021/03/03 07:40:12;;;;;;;27.33;14.35;;;7.50;94.00;;;;;;4956003;29;20082;-77
2021/03/03 07:42:39;;;;;;;28.10;14.55;;;7.50;93.60;;;;;;4957628;28;20027;-75
2021/03/03 07:45:14;;;;;;;28.95;15.85;;;7.70;93.40;;;;;;4973813;28;20440;-77
2021/03/03 07:47:41;;;;;;;25.90;16.35;;;7.90;92.80;;;;;;4975626;28;20424;-77
2021/03/03 07:50:20;;;;;;;26.65;16.08;;;8.20;92.90;;;;;;4975415;28;20023;-74
2021/03/03 07:52:51;;;;;;;27.30;15.60;;;8.00;91.70;;;;;;4967537;28;20058;-76
2021/03/03 07:55:17;;;;;;;25.10;15.65;;;8.20;91.60;;;;;;4954485;29;20380;-76
2021/03/03 07:57:48;;;;;;;25.25;15.20;;;8.40;90.90;;;;;;4955700;28;20479;-77
2021/03/03 08:00:41;;;;;;;26.58;15.65;;;8.80;90.80;;;;;;4955722;29;20023;-76
2021/03/03 08:03:07;;;;;;;25.25;15.23;;;9.30;87.80;;;;;;4956246;29;20038;-77
2021/03/03 08:05:36;;;;;;;25.50;14.35;;;9.60;84.00;;;;;;4955637;29;20019;-78
2021/03/03 08:08:13;;;;;;;23.20;13.07;;;10.00;79.60;;;;;;4956303;29;20023;-77
2021/03/03 08:10:41;;;;;;;26.95;15.75;;;10.30;77.80;;;;;;4955958;29;20311;-74
2021/03/03 08:13:17;;;;;;;24.63;13.85;;;10.70;77.10;;;;;;4956037;28;20030;-76
2021/03/03 08:15:42;;;;;;;20.85;12.85;;;11.00;71.50;;;;;;4955306;29;20023;-78
2021/03/03 08:18:15;;;;;;;22.15;13.05;;;11.10;71.00;;;;;;4955927;29;20028;-76
2021/03/03 08:20:42;;;;;;;20.75;11.95;;;11.40;69.40;;;;;;4955236;29;20110;-76
2021/03/03 08:23:08;;;;;;;17.83;10.80;;;11.70;67.60;;;;;;4938894;29;20028;-75
2021/03/03 08:25:47;;;;;;;21.25;11.00;;;11.70;63.70;;;;;;4955422;29;20472;-78
2021/03/03 08:28:30;;;;;;;24.25;11.63;;;12.10;63.60;;;;;;4964270;28;20023;-77
2021/03/03 08:31:14;;;;;;;29.05;15.27;;;12.30;63.90;;;;;;4973394;28;20354;-76
2021/03/03 08:33:48;;;;;;;19.50;11.77;;;12.70;63.10;;;;;;4975109;28;20449;-77
2021/03/03 08:36:24;;;;;;;18.60;11.15;;;13.00;61.60;;;;;;4974115;28;20022;-76
2021/03/03 08:38:56;;;;;;;17.30;10.00;;;13.30;59.70;;;;;;4974750;28;20045;-78
2021/03/03 08:41:28;;;;;;;15.40;9.23;;;12.70;58.40;;;;;;4956955;28;20034;-74
2021/03/03 08:44:02;;;;;;;13.95;9.02;;;13.20;58.40;;;;;;4958668;28;20656;-78
2021/03/03 08:46:28;;;;;;;13.57;8.60;;;13.40;57.40;;;;;;4954697;29;20047;-77
2021/03/03 08:48:57;;;;;;;15.07;8.27;;;13.70;56.90;;;;;;4955272;29;20035;-77
2021/03/03 08:51:30;;;;;;;13.20;8.57;;;13.90;55.40;;;;;;4954798;29;20038;-78
2021/03/03 08:54:01;;;;;;;17.77;8.82;;;14.20;54.80;;;;;;4972519;28;20030;-77
2021/03/03 08:56:36;;;;;;;;;;;14.50;54.10;;;;;;4974467;28;20047;-77
2021/03/03 08:59:10;;;;;;;17.20;8.95;;;14.70;53.90;;;;;;4958086;28;19902;-77
2021/03/03 09:01:57;;;;;;;15.75;9.23;;;14.90;52.80;;;;;;4937398;29;20023;-75
2021/03/03 09:04:28;;;;;;;13.93;8.02;;;15.10;52.30;;;;;;4955261;29;20028;-77
2021/03/03 09:07:00;;;;;;;15.55;8.30;;;15.30;51.90;;;;;;4954352;29;20027;-77
2021/03/03 09:09:27;;;;;;;11.45;6.85;;;15.40;50.50;;;;;;4955118;29;20109;-77
2021/03/03 09:12:06;;;;;;;13.52;7.55;;;15.40;49.40;;;;;;4952885;29;20481;-76
2021/03/03 09:14:34;;;;;;;11.27;6.63;;;15.60;48.50;;;;;;4962666;28;20353;-76
2021/03/03 09:17:08;;;;;;;13.90;7.50;;;15.70;47.20;;;;;;4973700;28;20054;-76
2021/03/03 09:19:36;;;;;;;15.35;7.60;;;15.60;47.60;;;;;;4974285;28;20043;-78
2021/03/03 09:22:18;;;;;;;15.48;8.02;;;15.80;49.00;;;;;;4973473;28;20030;-75
2021/03/03 09:24:45;;;;;;;15.60;7.70;;;16.20;48.30;;;;;;4968900;28;20403;-77
2021/03/03 09:27:11;;;;;;;11.32;6.72;;;16.10;47.40;;;;;;4969911;28;20098;-76
2021/03/03 09:29:39;;;;;;;16.70;9.20;;;16.40;47.30;;;;;;4964949;28;20011;-75
2021/03/03 09:32:10;;;;;;;19.33;8.00;;;16.40;47.00;;;;;;4954109;28;20521;-76
2021/03/03 09:34:44;;;;;;;18.40;9.38;;;16.40;46.80;;;;;;4951447;28;20110;-75
2021/03/03 09:37:10;;;;;;;16.55;9.77;;;16.50;46.30;;;;;;4952558;28;20422;-75
2021/03/03 09:39:36;;;;;;;20.60;9.90;;;17.20;50.20;;;;;;4936329;29;20034;-75
2021/03/03 09:42:07;;;;;;;15.63;8.40;;;17.80;49.50;;;;;;4951905;28;20019;-76
2021/03/03 09:44:43;;;;;;;15.90;8.55;;;18.20;47.10;;;;;;4953831;28;20040;-75
2021/03/03 09:47:09;;;;;;;16.30;7.55;;;18.50;47.30;;;;;;4952683;28;20417;-78
2021/03/03 09:49:37;;;;;;;16.52;8.48;;;18.60;43.70;;;;;;4954005;29;20536;-77
2021/03/03 09:52:03;;;;;;;17.35;8.85;;;18.70;46.30;;;;;;4939693;28;21236;-77
2021/03/03 09:54:37;;;;;;;17.05;8.50;;;19.10;46.10;;;;;;4963564;28;20353;-75
2021/03/03 09:57:23;;;;;;;12.52;7.32;;;19.00;44.20;;;;;;4961554;28;20026;-76
2021/03/03 09:59:54;;;;;;;13.35;7.65;;;19.00;45.00;;;;;;4961155;28;20014;-75
2021/03/03 10:02:23;;;;;;;13.10;7.78;;;19.20;44.10;;;;;;4963316;28;20015;-77
2021/03/03 10:04:49;;;;;;;14.23;7.03;;;19.40;43.90;;;;;;4963683;28;20073;-76
2021/03/03 10:07:21;;;;;;;14.55;7.63;;;19.50;43.30;;;;;;4965988;28;20038;-75
2021/03/03 10:09:50;;;;;;;13.13;7.68;;;19.00;41.20;;;;;;4962374;28;20019;-75
2021/03/03 10:12:22;;;;;;;13.90;7.00;;;18.50;41.90;;;;;;4961206;28;20034;-75
2021/03/03 10:14:58;;;;;;;13.40;7.85;;;18.40;42.20;;;;;;4964204;28;20026;-75
2021/03/03 10:17:32;;;;;;;14.20;7.07;;;18.40;41.90;;;;;;4963789;28;20026;-75
2021/03/03 10:19:58;;;;;;;13.25;7.20;;;18.30;42.10;;;;;;4967025;28;20038;-76
2021/03/03 10:22:24;;;;;;;20.08;8.45;;;18.30;42.30;;;;;;4972064;28;20023;-75
2021/03/03 10:24:58;;;;;;;15.75;7.68;;;18.60;42.60;;;;;;4972085;28;20026;-75
2021/03/03 10:27:25;;;;;;;12.10;7.53;;;18.50;41.70;;;;;;4971906;28;20029;-77
2021/03/03 10:29:51;;;;;;;16.98;7.80;;;17.90;41.10;;;;;;4969336;28;21112;-76
2021/03/03 10:32:17;;;;;;;13.20;7.22;;;18.10;41.70;;;;;;4965030;28;20488;-77
2021/03/03 10:34:43;;;;;;;12.52;7.20;;;18.10;41.40;;;;;;4947373;28;20038;-76
2021/03/03 10:37:25;;;;;;;15.43;6.95;;;17.90;41.30;;;;;;4961574;28;20030;-75
2021/03/03 10:39:52;;;;;;;13.70;7.35;;;18.00;41.80;;;;;;4963846;28;20019;-76
2021/03/03 10:42:23;;;;;;;16.45;7.78;;;17.60;42.00;;;;;;4961339;28;20043;-75
2021/03/03 10:44:52;;;;;;;10.63;7.30;;;17.70;42.30;;;;;;4961605;28;20380;-75
2021/03/03 10:47:39;;;;;;;12.77;6.30;;;17.30;41.90;;;;;;4962515;28;20133;-76
2021/03/03 10:50:07;;;;;;;11.80;6.20;;;17.20;41.60;;;;;;4960148;28;20087;-76
2021/03/03 10:52:33;;;;;;;12.23;6.28;;;17.60;41.20;;;;;;4956427;28;20050;-75
2021/03/03 10:54:59;;;;;;;11.82;6.28;;;18.00;40.70;;;;;;4963354;28;20019;-75
2021/03/03 10:57:25;;;;;;;14.43;6.70;;;17.90;40.40;;;;;;4969557;28;20030;-75
2021/03/03 11:00:04;;;;;;;13.30;6.38;;;17.80;40.50;;;;;;4972111;28;20015;-74
2021/03/03 11:02:30;;;;;;;12.27;6.70;;;17.90;40.40;;;;;;4971687;28;20022;-74
2021/03/03 11:04:56;;;;;;;12.13;6.53;;;17.80;40.70;;;;;;4972142;28;20379;-74
2021/03/03 11:07:22;;;;;;;12.13;6.20;;;18.10;39.70;;;;;;4942606;28;20528;-75
2021/03/03 11:09:52;;;;;;;12.95;6.55;;;18.30;40.20;;;;;;4952343;29;20037;-74
2021/03/03 11:12:25;;;;;;;14.45;6.95;;;18.60;39.80;;;;;;4949153;28;20131;-74
2021/03/03 11:14:51;;;;;;;14.57;7.07;;;18.50;40.20;;;;;;4954180;28;20030;-75
2021/03/03 11:17:16;;;;;;;10.35;5.95;;;18.10;39.90;;;;;;4970835;28;20022;-75
2021/03/03 11:19:43;;;;;;;11.07;6.22;;;18.10;40.80;;;;;;4971734;28;20027;-74
2021/03/03 11:22:08;;;;;;;12.48;5.95;;;18.20;40.60;;;;;;4961671;28;20466;-74
2021/03/03 11:24:34;;;;;;;11.70;6.30;;;18.60;39.40;;;;;;4952804;29;20122;-75
2021/03/03 11:27:00;;;;;;;14.48;6.18;;;18.90;41.30;;;;;;4952393;28;20108;-75
2021/03/03 11:29:26;;;;;;;11.68;6.30;;;18.60;41.90;;;;;;4952422;29;20092;-75
2021/03/03 11:31:51;;;;;;;13.55;6.20;;;19.20;41.70;;;;;;4946418;28;20031;-75
2021/03/03 11:34:17;;;;;;;10.90;6.15;;;20.10;41.60;;;;;;4963309;28;20457;-75
2021/03/03 11:36:43;;;;;;;14.60;6.45;;;20.70;39.70;;;;;;4971605;28;20460;-75
2021/03/03 11:39:10;;;;;;;12.50;6.97;;;20.80;38.70;;;;;;4956202;28;20544;-73
2021/03/03 11:41:36;;;;;;;14.40;7.03;;;20.50;37.60;;;;;;4952790;29;20023;-74
2021/03/03 11:44:03;;;;;;;10.68;6.05;;;20.00;38.10;;;;;;4944791;28;20093;-73
2021/03/03 11:46:29;;;;;;;15.30;6.47;;;20.10;38.60;;;;;;4959764;28;20027;-73
2021/03/03 11:48:55;;;;;;;12.38;6.05;;;19.60;38.20;;;;;;4963272;28;20077;-74
2021/03/03 11:51:20;;;;;;;12.13;6.35;;;20.00;38.40;;;;;;4958849;28;20026;-74
2021/03/03 11:53:46;;;;;;;12.27;6.22;;;20.30;39.10;;;;;;4958371;28;20026;-75
2021/03/03 11:56:12;;;;;;;13.57;6.43;;;20.40;38.60;;;;;;4959262;28;20111;-74
2021/03/03 11:58:37;;;;;;;11.43;6.90;;;20.30;37.70;;;;;;4957989;28;20512;-75
2021/03/03 12:01:04;;;;;;;12.20;6.07;;;20.60;38.50;;;;;;4961902;28;20666;-75
2021/03/03 12:03:30;;;;;;;11.10;6.65;;;21.60;39.00;;;;;;4944057;28;20381;-76
2021/03/03 12:05:55;;;;;;;11.27;6.00;;;22.10;37.90;;;;;;4966921;28;20469;-76
2021/03/03 12:08:21;;;;;;;11.90;6.38;;;21.20;36.30;;;;;;4961296;28;20050;-76
2021/03/03 12:10:47;;;;;;;11.00;6.78;;;21.80;36.90;;;;;;4964682;28;20027;-75
2021/03/03 12:13:13;;;;;;;11.32;5.43;;;21.90;36.60;;;;;;4961239;28;20054;-74
2021/03/03 12:15:38;;;;;;;12.82;6.93;;;21.50;35.80;;;;;;4964518;28;20018;-75
2021/03/03 12:18:04;;;;;;;11.02;5.57;;;21.00;36.10;;;;;;4964545;28;20125;-75
2021/03/03 12:20:31;;;;;;;12.73;6.10;;;21.30;36.80;;;;;;4965347;28;20051;-75
2021/03/03 12:22:57;;;;;;;10.35;6.13;;;21.70;36.90;;;;;;4962395;28;20031;-75
2021/03/03 12:25:24;;;;;;;9.88;6.57;;;21.80;36.60;;;;;;4964070;28;20046;-75
2021/03/03 12:27:50;;;;;;;11.52;6.20;;;21.60;36.30;;;;;;4963645;28;20536;-76
2021/03/03 12:30:17;;;;;;;18.02;7.80;;;22.10;36.60;;;;;;4963457;28;20039;-75
2021/03/03 12:32:43;;;;;;;12.90;6.65;;;21.70;36.10;;;;;;4945732;28;20086;-76
2021/03/03 12:35:09;;;;;;;11.55;6.20;;;21.30;35.80;;;;;;4964292;28;20404;-75
2021/03/03 12:37:35;;;;;;;11.77;6.45;;;21.10;36.90;;;;;;4967631;28;20154;-76
2021/03/03 12:40:02;;;;;;;14.48;7.07;;;21.50;36.50;;;;;;4958905;28;20447;-76
2021/03/03 12:42:28;;;;;;;11.23;6.72;;;21.40;36.00;;;;;;4959125;28;20027;-76